sensor_id;sensor_type;location;lat;lon;timestamp;P1;durP1;ratioP1;P2;durP2;ratioP2
12976;SDS011;6553;48.412;9.514;2023-01-13T00:01:21;2.08;;;1.10;;
12976;SDS011;6553;48.412;9.514;2023-01-13T00:03:48;2.20;;;1.35;;
12976;SDS011;6553;48.412;9.514;2023-01-13T00:06:16;1.80;;;1.13;;
12976;SDS011;6553;48.412;9.514;2023-01-13T00:08:49;2.13;;;1.23;;
12976;SDS011;6553;48.412;9.514;2023-01-13T00:11:16;2.35;;;1.08;;
12976;SDS011;6553;48.412;9.514;2023-01-13T00:13:43;2.85;;;1.30;;
12976;SDS011;6553;48.412;9.514;2023-01-13T00:16:09;2.20;;;1.30;;
12976;SDS011;6553;48.412;9.514;2023-01-13T00:18:39;1.25;;;1.00;;
12976;SDS011;6553;48.412;9.514;2023-01-13T00:21:06;2.53;;;1.40;;
12976;SDS011;6553;48.412;9.514;2023-01-13T00:23:37;2.70;;;1.27;;
12976;SDS011;6553;48.412;9.514;2023-01-13T00:26:08;2.67;;;1.20;;
12976;SDS011;6553;48.412;9.514;2023-01-13T00:28:37;1.38;;;1.13;;
12976;SDS011;6553;48.412;9.514;2023-01-13T00:31:04;1.77;;;1.05;;
12976;SDS011;6553;48.412;9.514;2023-01-13T00:33:31;1.85;;;1.13;;
12976;SDS011;6553;48.412;9.514;2023-01-13T00:35:57;1.67;;;1.00;;
12976;SDS011;6553;48.412;9.514;2023-01-13T00:38:25;1.92;;;1.20;;
12976;SDS011;6553;48.412;9.514;2023-01-13T00:40:58;1.27;;;1.13;;
12976;SDS011;6553;48.412;9.514;2023-01-13T00:43:28;2.33;;;1.20;;
12976;SDS011;6553;48.412;9.514;2023-01-13T00:45:56;1.13;;;0.82;;
12976;SDS011;6553;48.412;9.514;2023-01-13T00:48:23;1.80;;;1.00;;
12976;SDS011;6553;48.412;9.514;2023-01-13T00:50:58;1.65;;;1.10;;
12976;SDS011;6553;48.412;9.514;2023-01-13T00:53:43;3.65;;;1.35;;
12976;SDS011;6553;48.412;9.514;2023-01-13T00:56:21;2.10;;;1.42;;
12976;SDS011;6553;48.412;9.514;2023-01-13T00:58:49;2.78;;;1.13;;
12976;SDS011;6553;48.412;9.514;2023-01-13T01:01:22;1.00;;;0.90;;
12976;SDS011;6553;48.412;9.514;2023-01-13T01:03:50;1.98;;;1.02;;
12976;SDS011;6553;48.412;9.514;2023-01-13T01:06:19;2.00;;;1.00;;
12976;SDS011;6553;48.412;9.514;2023-01-13T01:08:49;1.25;;;0.90;;
12976;SDS011;6553;48.412;9.514;2023-01-13T01:11:17;1.92;;;1.10;;
12976;SDS011;6553;48.412;9.514;2023-01-13T01:13:56;2.53;;;0.95;;
12976;SDS011;6553;48.412;9.514;2023-01-13T01:16:25;1.42;;;1.00;;
12976;SDS011;6553;48.412;9.514;2023-01-13T01:18:54;1.73;;;1.08;;
12976;SDS011;6553;48.412;9.514;2023-01-13T01:21:21;1.38;;;1.02;;
12976;SDS011;6553;48.412;9.514;2023-01-13T01:23:49;1.73;;;0.90;;
12976;SDS011;6553;48.412;9.514;2023-01-13T01:26:16;2.08;;;0.80;;
12976;SDS011;6553;48.412;9.514;2023-01-13T01:28:45;1.88;;;1.20;;
12976;SDS011;6553;48.412;9.514;2023-01-13T01:31:12;1.75;;;1.15;;
12976;SDS011;6553;48.412;9.514;2023-01-13T01:33:41;1.77;;;1.10;;
12976;SDS011;6553;48.412;9.514;2023-01-13T01:36:07;1.88;;;0.82;;
12976;SDS011;6553;48.412;9.514;2023-01-13T01:38:38;2.35;;;1.17;;
12976;SDS011;6553;48.412;9.514;2023-01-13T01:41:05;1.60;;;0.90;;
12976;SDS011;6553;48.412;9.514;2023-01-13T01:47:10;1.88;;;1.10;;
12976;SDS011;6553;48.412;9.514;2023-01-13T01:49:42;1.17;;;0.88;;
12976;SDS011;6553;48.412;9.514;2023-01-13T01:52:20;1.70;;;0.93;;
12976;SDS011;6553;48.412;9.514;2023-01-13T01:55:05;1.30;;;1.08;;
12976;SDS011;6553;48.412;9.514;2023-01-13T01:57:41;1.27;;;0.73;;
12976;SDS011;6553;48.412;9.514;2023-01-13T02:00:11;1.42;;;0.88;;
12976;SDS011;6553;48.412;9.514;2023-01-13T02:02:38;2.35;;;1.00;;
12976;SDS011;6553;48.412;9.514;2023-01-13T02:05:08;2.15;;;1.15;;
12976;SDS011;6553;48.412;9.514;2023-01-13T02:07:35;1.40;;;0.80;;
12976;SDS011;6553;48.412;9.514;2023-01-13T02:10:05;1.23;;;1.02;;
12976;SDS011;6553;48.412;9.514;2023-01-13T02:12:35;2.08;;;1.10;;
12976;SDS011;6553;48.412;9.514;2023-01-13T02:15:10;1.77;;;0.98;;
12976;SDS011;6553;48.412;9.514;2023-01-13T02:36:48;3.05;;;1.08;;
12976;SDS011;6553;48.412;9.514;2023-01-13T02:42:26;2.00;;;0.85;;
12976;SDS011;6553;48.412;9.514;2023-01-13T02:47:54;2.58;;;0.93;;
12976;SDS011;6553;48.412;9.514;2023-01-13T02:50:28;1.23;;;1.00;;
12976;SDS011;6553;48.412;9.514;2023-01-13T02:53:14;1.08;;;0.90;;
12976;SDS011;6553;48.412;9.514;2023-01-13T02:55:50;2.20;;;1.08;;
12976;SDS011;6553;48.412;9.514;2023-01-13T02:58:21;1.13;;;0.85;;
12976;SDS011;6553;48.412;9.514;2023-01-13T03:00:51;1.35;;;1.00;;
12976;SDS011;6553;48.412;9.514;2023-01-13T03:03:17;1.15;;;0.95;;
12976;SDS011;6553;48.412;9.514;2023-01-13T03:05:43;2.20;;;1.23;;
12976;SDS011;6553;48.412;9.514;2023-01-13T03:08:32;0.93;;;0.80;;
12976;SDS011;6553;48.412;9.514;2023-01-13T03:11:33;1.10;;;0.90;;
12976;SDS011;6553;48.412;9.514;2023-01-13T03:14:21;1.77;;;1.10;;
12976;SDS011;6553;48.412;9.514;2023-01-13T03:17:31;1.75;;;1.08;;
12976;SDS011;6553;48.412;9.514;2023-01-13T03:20:11;2.30;;;0.93;;
12976;SDS011;6553;48.412;9.514;2023-01-13T03:22:50;1.70;;;1.10;;
12976;SDS011;6553;48.412;9.514;2023-01-13T03:25:51;1.40;;;0.80;;
12976;SDS011;6553;48.412;9.514;2023-01-13T03:28:43;1.65;;;0.90;;
12976;SDS011;6553;48.412;9.514;2023-01-13T03:31:20;2.05;;;0.90;;
12976;SDS011;6553;48.412;9.514;2023-01-13T03:33:59;1.30;;;0.95;;
12976;SDS011;6553;48.412;9.514;2023-01-13T03:36:37;0.80;;;0.77;;
12976;SDS011;6553;48.412;9.514;2023-01-13T03:39:08;1.40;;;0.90;;
12976;SDS011;6553;48.412;9.514;2023-01-13T03:41:48;1.33;;;0.90;;
12976;SDS011;6553;48.412;9.514;2023-01-13T03:44:34;1.45;;;0.90;;
12976;SDS011;6553;48.412;9.514;2023-01-13T03:47:12;1.05;;;0.70;;
12976;SDS011;6553;48.412;9.514;2023-01-13T03:50:05;1.08;;;0.75;;
12976;SDS011;6553;48.412;9.514;2023-01-13T03:52:47;1.00;;;0.80;;
12976;SDS011;6553;48.412;9.514;2023-01-13T03:55:21;1.25;;;0.90;;
12976;SDS011;6553;48.412;9.514;2023-01-13T03:58:11;1.42;;;0.80;;
12976;SDS011;6553;48.412;9.514;2023-01-13T04:03:31;1.60;;;0.90;;
12976;SDS011;6553;48.412;9.514;2023-01-13T04:09:11;0.68;;;0.60;;
12976;SDS011;6553;48.412;9.514;2023-01-13T04:11:50;0.80;;;0.80;;
12976;SDS011;6553;48.412;9.514;2023-01-13T04:14:21;1.70;;;1.00;;
12976;SDS011;6553;48.412;9.514;2023-01-13T04:16:53;0.80;;;0.80;;
12976;SDS011;6553;48.412;9.514;2023-01-13T04:19:20;0.80;;;0.77;;
12976;SDS011;6553;48.412;9.514;2023-01-13T04:21:46;0.82;;;0.60;;
12976;SDS011;6553;48.412;9.514;2023-01-13T04:24:12;0.98;;;0.70;;
12976;SDS011;6553;48.412;9.514;2023-01-13T04:26:37;1.00;;;0.80;;
12976;SDS011;6553;48.412;9.514;2023-01-13T04:29:03;1.02;;;0.82;;
12976;SDS011;6553;48.412;9.514;2023-01-13T04:31:29;1.13;;;1.00;;
12976;SDS011;6553;48.412;9.514;2023-01-13T04:33:55;0.95;;;0.70;;
12976;SDS011;6553;48.412;9.514;2023-01-13T04:36:21;2.53;;;0.95;;
12976;SDS011;6553;48.412;9.514;2023-01-13T04:38:51;0.60;;;0.55;;
12976;SDS011;6553;48.412;9.514;2023-01-13T04:41:18;1.30;;;0.90;;
12976;SDS011;6553;48.412;9.514;2023-01-13T04:43:44;1.20;;;0.80;;
12976;SDS011;6553;48.412;9.514;2023-01-13T04:46:10;0.80;;;0.68;;
12976;SDS011;6553;48.412;9.514;2023-01-13T04:48:36;0.95;;;0.85;;
12976;SDS011;6553;48.412;9.514;2023-01-13T04:51:01;0.73;;;0.73;;
12976;SDS011;6553;48.412;9.514;2023-01-13T04:53:27;0.80;;;0.80;;
12976;SDS011;6553;48.412;9.514;2023-01-13T04:55:53;1.15;;;0.90;;
12976;SDS011;6553;48.412;9.514;2023-01-13T04:58:19;0.85;;;0.63;;
12976;SDS011;6553;48.412;9.514;2023-01-13T05:00:45;1.05;;;0.80;;
12976;SDS011;6553;48.412;9.514;2023-01-13T05:03:11;0.85;;;0.73;;
12976;SDS011;6553;48.412;9.514;2023-01-13T05:05:37;2.63;;;1.00;;
12976;SDS011;6553;48.412;9.514;2023-01-13T05:08:03;1.95;;;1.02;;
12976;SDS011;6553;48.412;9.514;2023-01-13T05:10:29;0.85;;;0.77;;
12976;SDS011;6553;48.412;9.514;2023-01-13T05:12:55;0.93;;;0.63;;
12976;SDS011;6553;48.412;9.514;2023-01-13T05:15:40;0.68;;;0.68;;
12976;SDS011;6553;48.412;9.514;2023-01-13T05:18:25;1.15;;;0.80;;
12976;SDS011;6553;48.412;9.514;2023-01-13T05:20:53;0.63;;;0.63;;
12976;SDS011;6553;48.412;9.514;2023-01-13T05:23:19;0.68;;;0.68;;
12976;SDS011;6553;48.412;9.514;2023-01-13T05:26:03;0.85;;;0.77;;
12976;SDS011;6553;48.412;9.514;2023-01-13T05:28:30;0.57;;;0.57;;
12976;SDS011;6553;48.412;9.514;2023-01-13T05:30:58;1.10;;;0.90;;
12976;SDS011;6553;48.412;9.514;2023-01-13T05:33:24;0.93;;;0.70;;
12976;SDS011;6553;48.412;9.514;2023-01-13T05:35:49;1.15;;;0.93;;
12976;SDS011;6553;48.412;9.514;2023-01-13T05:38:15;1.13;;;0.70;;
12976;SDS011;6553;48.412;9.514;2023-01-13T05:40:42;0.70;;;0.70;;
12976;SDS011;6553;48.412;9.514;2023-01-13T05:43:27;0.52;;;0.52;;
12976;SDS011;6553;48.412;9.514;2023-01-13T05:48:41;0.60;;;0.55;;
12976;SDS011;6553;48.412;9.514;2023-01-13T05:51:08;0.80;;;0.60;;
12976;SDS011;6553;48.412;9.514;2023-01-13T05:53:36;0.90;;;0.60;;
12976;SDS011;6553;48.412;9.514;2023-01-13T05:56:05;0.50;;;0.50;;
12976;SDS011;6553;48.412;9.514;2023-01-13T05:58:32;0.88;;;0.60;;
12976;SDS011;6553;48.412;9.514;2023-01-13T06:00:59;0.70;;;0.70;;
12976;SDS011;6553;48.412;9.514;2023-01-13T06:03:31;0.65;;;0.60;;
12976;SDS011;6553;48.412;9.514;2023-01-13T06:05:57;1.02;;;0.80;;
12976;SDS011;6553;48.412;9.514;2023-01-13T06:08:25;0.50;;;0.50;;
12976;SDS011;6553;48.412;9.514;2023-01-13T06:10:51;0.95;;;0.70;;
12976;SDS011;6553;48.412;9.514;2023-01-13T06:13:17;0.80;;;0.68;;
12976;SDS011;6553;48.412;9.514;2023-01-13T06:15:43;1.33;;;0.55;;
12976;SDS011;6553;48.412;9.514;2023-01-13T06:18:09;1.45;;;0.70;;
12976;SDS011;6553;48.412;9.514;2023-01-13T06:20:34;0.60;;;0.60;;
12976;SDS011;6553;48.412;9.514;2023-01-13T06:23:00;1.27;;;0.70;;
12976;SDS011;6553;48.412;9.514;2023-01-13T06:28:27;0.80;;;0.77;;
12976;SDS011;6553;48.412;9.514;2023-01-13T06:30:55;1.73;;;0.70;;
12976;SDS011;6553;48.412;9.514;2023-01-13T06:33:29;0.80;;;0.63;;
12976;SDS011;6553;48.412;9.514;2023-01-13T06:36:03;0.75;;;0.60;;
12976;SDS011;6553;48.412;9.514;2023-01-13T06:38:39;0.93;;;0.70;;
12976;SDS011;6553;48.412;9.514;2023-01-13T06:41:10;0.75;;;0.68;;
12976;SDS011;6553;48.412;9.514;2023-01-13T06:43:37;0.80;;;0.70;;
12976;SDS011;6553;48.412;9.514;2023-01-13T06:46:04;0.88;;;0.70;;
12976;SDS011;6553;48.412;9.514;2023-01-13T06:48:31;1.10;;;0.70;;
12976;SDS011;6553;48.412;9.514;2023-01-13T06:50:59;1.38;;;0.50;;
12976;SDS011;6553;48.412;9.514;2023-01-13T06:53:27;0.88;;;0.60;;
12976;SDS011;6553;48.412;9.514;2023-01-13T06:55:52;0.95;;;0.55;;
12976;SDS011;6553;48.412;9.514;2023-01-13T06:58:18;0.90;;;0.50;;
12976;SDS011;6553;48.412;9.514;2023-01-13T07:00:44;0.80;;;0.60;;
12976;SDS011;6553;48.412;9.514;2023-01-13T07:03:14;1.15;;;0.90;;
12976;SDS011;6553;48.412;9.514;2023-01-13T07:05:42;0.70;;;0.70;;
12976;SDS011;6553;48.412;9.514;2023-01-13T07:08:15;0.85;;;0.60;;
12976;SDS011;6553;48.412;9.514;2023-01-13T07:10:41;0.63;;;0.60;;
12976;SDS011;6553;48.412;9.514;2023-01-13T07:13:07;0.80;;;0.68;;
12976;SDS011;6553;48.412;9.514;2023-01-13T07:15:55;0.60;;;0.60;;
12976;SDS011;6553;48.412;9.514;2023-01-13T07:18:23;0.70;;;0.60;;
12976;SDS011;6553;48.412;9.514;2023-01-13T07:20:56;0.60;;;0.60;;
12976;SDS011;6553;48.412;9.514;2023-01-13T07:23:25;0.75;;;0.70;;
12976;SDS011;6553;48.412;9.514;2023-01-13T07:25:56;0.50;;;0.50;;
12976;SDS011;6553;48.412;9.514;2023-01-13T07:28:24;1.63;;;0.70;;
12976;SDS011;6553;48.412;9.514;2023-01-13T07:30:51;0.52;;;0.50;;
12976;SDS011;6553;48.412;9.514;2023-01-13T07:33:18;1.20;;;0.77;;
12976;SDS011;6553;48.412;9.514;2023-01-13T07:35:46;0.50;;;0.50;;
12976;SDS011;6553;48.412;9.514;2023-01-13T07:38:13;0.63;;;0.60;;
12976;SDS011;6553;48.412;9.514;2023-01-13T07:40:39;1.20;;;0.70;;
12976;SDS011;6553;48.412;9.514;2023-01-13T07:43:05;1.90;;;0.60;;
12976;SDS011;6553;48.412;9.514;2023-01-13T07:46:23;1.20;;;0.77;;
12976;SDS011;6553;48.412;9.514;2023-01-13T07:48:42;0.60;;;0.60;;
12976;SDS011;6553;48.412;9.514;2023-01-13T07:51:11;1.45;;;0.68;;
12976;SDS011;6553;48.412;9.514;2023-01-13T07:53:37;1.05;;;0.50;;
12976;SDS011;6553;48.412;9.514;2023-01-13T07:56:04;1.58;;;0.63;;
12976;SDS011;6553;48.412;9.514;2023-01-13T07:58:34;0.47;;;0.47;;
12976;SDS011;6553;48.412;9.514;2023-01-13T08:01:08;0.75;;;0.60;;
12976;SDS011;6553;48.412;9.514;2023-01-13T08:03:38;0.77;;;0.60;;
12976;SDS011;6553;48.412;9.514;2023-01-13T08:06:05;0.57;;;0.57;;
12976;SDS011;6553;48.412;9.514;2023-01-13T08:08:31;0.50;;;0.50;;
12976;SDS011;6553;48.412;9.514;2023-01-13T08:10:57;0.77;;;0.52;;
12976;SDS011;6553;48.412;9.514;2023-01-13T08:13:25;1.38;;;0.50;;
12976;SDS011;6553;48.412;9.514;2023-01-13T08:15:51;0.50;;;0.50;;
12976;SDS011;6553;48.412;9.514;2023-01-13T08:18:23;0.50;;;0.50;;
12976;SDS011;6553;48.412;9.514;2023-01-13T08:20:49;0.77;;;0.50;;
12976;SDS011;6553;48.412;9.514;2023-01-13T08:23:17;0.40;;;0.40;;
12976;SDS011;6553;48.412;9.514;2023-01-13T08:25:44;1.60;;;0.60;;
12976;SDS011;6553;48.412;9.514;2023-01-13T08:28:11;0.50;;;0.43;;
12976;SDS011;6553;48.412;9.514;2023-01-13T08:30:38;0.40;;;0.40;;
12976;SDS011;6553;48.412;9.514;2023-01-13T08:33:07;0.60;;;0.57;;
12976;SDS011;6553;48.412;9.514;2023-01-13T08:35:36;0.63;;;0.50;;
12976;SDS011;6553;48.412;9.514;2023-01-13T08:38:04;0.70;;;0.63;;
12976;SDS011;6553;48.412;9.514;2023-01-13T08:40:31;1.13;;;0.70;;
12976;SDS011;6553;48.412;9.514;2023-01-13T08:42:57;0.80;;;0.60;;
12976;SDS011;6553;48.412;9.514;2023-01-13T08:45:24;0.77;;;0.55;;
12976;SDS011;6553;48.412;9.514;2023-01-13T08:47:50;1.15;;;0.60;;
12976;SDS011;6553;48.412;9.514;2023-01-13T08:50:16;0.77;;;0.68;;
12976;SDS011;6553;48.412;9.514;2023-01-13T08:52:43;0.47;;;0.47;;
12976;SDS011;6553;48.412;9.514;2023-01-13T08:55:09;0.60;;;0.60;;
12976;SDS011;6553;48.412;9.514;2023-01-13T08:57:36;0.50;;;0.50;;
12976;SDS011;6553;48.412;9.514;2023-01-13T09:00:03;0.55;;;0.55;;
12976;SDS011;6553;48.412;9.514;2023-01-13T09:02:31;0.73;;;0.60;;
12976;SDS011;6553;48.412;9.514;2023-01-13T09:04:57;0.47;;;0.40;;
12976;SDS011;6553;48.412;9.514;2023-01-13T09:07:24;0.63;;;0.52;;
12976;SDS011;6553;48.412;9.514;2023-01-13T09:09:50;0.65;;;0.50;;
12976;SDS011;6553;48.412;9.514;2023-01-13T09:12:16;0.70;;;0.50;;
12976;SDS011;6553;48.412;9.514;2023-01-13T09:15:00;0.40;;;0.40;;
12976;SDS011;6553;48.412;9.514;2023-01-13T09:17:28;0.85;;;0.50;;
12976;SDS011;6553;48.412;9.514;2023-01-13T09:19:53;0.63;;;0.60;;
12976;SDS011;6553;48.412;9.514;2023-01-13T09:22:19;1.10;;;0.57;;
12976;SDS011;6553;48.412;9.514;2023-01-13T09:24:45;0.60;;;0.60;;
12976;SDS011;6553;48.412;9.514;2023-01-13T09:27:12;0.50;;;0.50;;
12976;SDS011;6553;48.412;9.514;2023-01-13T09:29:39;0.55;;;0.55;;
12976;SDS011;6553;48.412;9.514;2023-01-13T09:32:05;0.43;;;0.43;;
12976;SDS011;6553;48.412;9.514;2023-01-13T09:34:31;0.50;;;0.50;;
12976;SDS011;6553;48.412;9.514;2023-01-13T09:37:16;0.82;;;0.60;;
12976;SDS011;6553;48.412;9.514;2023-01-13T09:39:42;2.15;;;0.50;;
12976;SDS011;6553;48.412;9.514;2023-01-13T09:45:45;0.77;;;0.75;;
12976;SDS011;6553;48.412;9.514;2023-01-13T09:48:19;0.85;;;0.60;;
12976;SDS011;6553;48.412;9.514;2023-01-13T09:51:05;0.85;;;0.73;;
12976;SDS011;6553;48.412;9.514;2023-01-13T09:53:47;0.50;;;0.50;;
12976;SDS011;6553;48.412;9.514;2023-01-13T09:56:20;0.60;;;0.60;;
12976;SDS011;6553;48.412;9.514;2023-01-13T09:58:48;1.20;;;0.60;;
12976;SDS011;6553;48.412;9.514;2023-01-13T10:04:10;1.15;;;0.60;;
12976;SDS011;6553;48.412;9.514;2023-01-13T10:06:39;0.75;;;0.50;;
12976;SDS011;6553;48.412;9.514;2023-01-13T10:09:16;0.45;;;0.45;;
12976;SDS011;6553;48.412;9.514;2023-01-13T10:11:51;0.70;;;0.65;;
12976;SDS011;6553;48.412;9.514;2023-01-13T10:14:41;0.50;;;0.50;;
12976;SDS011;6553;48.412;9.514;2023-01-13T10:17:33;0.73;;;0.60;;
12976;SDS011;6553;48.412;9.514;2023-01-13T10:26:16;0.90;;;0.80;;
12976;SDS011;6553;48.412;9.514;2023-01-13T10:29:17;0.55;;;0.55;;
12976;SDS011;6553;48.412;9.514;2023-01-13T10:31:52;0.60;;;0.60;;
12976;SDS011;6553;48.412;9.514;2023-01-13T10:34:20;1.85;;;0.80;;
12976;SDS011;6553;48.412;9.514;2023-01-13T10:37:03;0.68;;;0.57;;
12976;SDS011;6553;48.412;9.514;2023-01-13T10:39:38;1.00;;;0.65;;
12976;SDS011;6553;48.412;9.514;2023-01-13T10:42:11;0.50;;;0.50;;
12976;SDS011;6553;48.412;9.514;2023-01-13T10:44:50;0.55;;;0.50;;
12976;SDS011;6553;48.412;9.514;2023-01-13T10:47:23;0.60;;;0.60;;
12976;SDS011;6553;48.412;9.514;2023-01-13T10:52:34;0.60;;;0.60;;
12976;SDS011;6553;48.412;9.514;2023-01-13T10:55:22;0.80;;;0.70;;
12976;SDS011;6553;48.412;9.514;2023-01-13T10:58:12;0.52;;;0.50;;
12976;SDS011;6553;48.412;9.514;2023-01-13T11:00:44;0.60;;;0.60;;
12976;SDS011;6553;48.412;9.514;2023-01-13T11:03:22;0.45;;;0.45;;
12976;SDS011;6553;48.412;9.514;2023-01-13T11:05:53;1.02;;;0.60;;
12976;SDS011;6553;48.412;9.514;2023-01-13T11:08:26;1.33;;;0.80;;
12976;SDS011;6553;48.412;9.514;2023-01-13T11:14:14;0.88;;;0.50;;
12976;SDS011;6553;48.412;9.514;2023-01-13T11:16:57;0.60;;;0.55;;
12976;SDS011;6553;48.412;9.514;2023-01-13T11:19:33;0.88;;;0.60;;
12976;SDS011;6553;48.412;9.514;2023-01-13T11:22:15;0.98;;;0.40;;
12976;SDS011;6553;48.412;9.514;2023-01-13T11:24:52;0.75;;;0.63;;
12976;SDS011;6553;48.412;9.514;2023-01-13T11:27:37;0.50;;;0.50;;
12976;SDS011;6553;48.412;9.514;2023-01-13T11:30:25;0.50;;;0.50;;
12976;SDS011;6553;48.412;9.514;2023-01-13T11:36:32;0.52;;;0.47;;
12976;SDS011;6553;48.412;9.514;2023-01-13T11:39:11;0.68;;;0.60;;
12976;SDS011;6553;48.412;9.514;2023-01-13T11:42:14;0.57;;;0.52;;
12976;SDS011;6553;48.412;9.514;2023-01-13T11:47:56;0.40;;;0.40;;
12976;SDS011;6553;48.412;9.514;2023-01-13T11:56:40;0.65;;;0.65;;
12976;SDS011;6553;48.412;9.514;2023-01-13T12:05:24;1.15;;;0.75;;
12976;SDS011;6553;48.412;9.514;2023-01-13T12:08:02;1.40;;;0.75;;
12976;SDS011;6553;48.412;9.514;2023-01-13T12:16:19;0.98;;;0.88;;
12976;SDS011;6553;48.412;9.514;2023-01-13T12:24:53;1.10;;;1.00;;
12976;SDS011;6553;48.412;9.514;2023-01-13T12:27:50;2.40;;;0.98;;
12976;SDS011;6553;48.412;9.514;2023-01-13T12:30:36;1.50;;;1.00;;
12976;SDS011;6553;48.412;9.514;2023-01-13T12:33:28;0.75;;;0.70;;
12976;SDS011;6553;48.412;9.514;2023-01-13T12:36:09;1.75;;;1.00;;
12976;SDS011;6553;48.412;9.514;2023-01-13T12:38:56;0.77;;;0.73;;
12976;SDS011;6553;48.412;9.514;2023-01-13T12:41:45;1.17;;;0.95;;
12976;SDS011;6553;48.412;9.514;2023-01-13T12:45:03;1.52;;;0.93;;
12976;SDS011;6553;48.412;9.514;2023-01-13T12:47:39;2.63;;;1.40;;
12976;SDS011;6553;48.412;9.514;2023-01-13T12:52:52;2.20;;;1.15;;
12976;SDS011;6553;48.412;9.514;2023-01-13T12:55:32;5.35;;;1.23;;
12976;SDS011;6553;48.412;9.514;2023-01-13T13:05:40;2.47;;;1.38;;
12976;SDS011;6553;48.412;9.514;2023-01-13T13:13:55;4.85;;;1.80;;
12976;SDS011;6553;48.412;9.514;2023-01-13T13:18:51;4.07;;;1.50;;
12976;SDS011;6553;48.412;9.514;2023-01-13T13:27:16;3.17;;;1.70;;
12976;SDS011;6553;48.412;9.514;2023-01-13T13:36:14;4.32;;;2.05;;
12976;SDS011;6553;48.412;9.514;2023-01-13T13:39:16;3.00;;;1.65;;
12976;SDS011;6553;48.412;9.514;2023-01-13T13:42:15;3.53;;;1.63;;
12976;SDS011;6553;48.412;9.514;2023-01-13T13:45:11;3.63;;;1.92;;
12976;SDS011;6553;48.412;9.514;2023-01-13T13:50:51;4.00;;;2.08;;
12976;SDS011;6553;48.412;9.514;2023-01-13T13:53:27;2.65;;;1.52;;
12976;SDS011;6553;48.412;9.514;2023-01-13T13:55:58;2.45;;;1.40;;
12976;SDS011;6553;48.412;9.514;2023-01-13T13:58:28;4.22;;;1.67;;
12976;SDS011;6553;48.412;9.514;2023-01-13T14:00:59;2.92;;;1.92;;
12976;SDS011;6553;48.412;9.514;2023-01-13T14:03:28;3.25;;;2.00;;
12976;SDS011;6553;48.412;9.514;2023-01-13T14:05:57;4.30;;;2.15;;
12976;SDS011;6553;48.412;9.514;2023-01-13T14:08:36;3.53;;;2.08;;
12976;SDS011;6553;48.412;9.514;2023-01-13T14:14:11;3.50;;;1.80;;
12976;SDS011;6553;48.412;9.514;2023-01-13T14:16:40;2.65;;;1.80;;
12976;SDS011;6553;48.412;9.514;2023-01-13T14:19:52;3.92;;;2.08;;
12976;SDS011;6553;48.412;9.514;2023-01-13T14:21:59;3.35;;;2.17;;
12976;SDS011;6553;48.412;9.514;2023-01-13T14:24:28;3.85;;;1.90;;
12976;SDS011;6553;48.412;9.514;2023-01-13T14:27:06;3.92;;;2.20;;
12976;SDS011;6553;48.412;9.514;2023-01-13T14:29:39;3.65;;;2.08;;
12976;SDS011;6553;48.412;9.514;2023-01-13T14:32:05;3.58;;;1.60;;
12976;SDS011;6553;48.412;9.514;2023-01-13T14:34:32;3.42;;;1.88;;
12976;SDS011;6553;48.412;9.514;2023-01-13T14:37:00;3.97;;;1.75;;
12976;SDS011;6553;48.412;9.514;2023-01-13T14:39:34;3.65;;;1.73;;
12976;SDS011;6553;48.412;9.514;2023-01-13T14:42:10;3.83;;;2.00;;
12976;SDS011;6553;48.412;9.514;2023-01-13T14:44:38;2.92;;;1.83;;
12976;SDS011;6553;48.412;9.514;2023-01-13T14:47:16;2.28;;;1.80;;
12976;SDS011;6553;48.412;9.514;2023-01-13T14:49:59;1.85;;;1.50;;
12976;SDS011;6553;48.412;9.514;2023-01-13T14:52:47;3.15;;;1.80;;
12976;SDS011;6553;48.412;9.514;2023-01-13T15:06:53;2.95;;;2.10;;
12976;SDS011;6553;48.412;9.514;2023-01-13T15:09:28;2.30;;;2.00;;
12976;SDS011;6553;48.412;9.514;2023-01-13T15:12:28;3.35;;;1.90;;
12976;SDS011;6553;48.412;9.514;2023-01-13T15:15:19;1.75;;;1.65;;
12976;SDS011;6553;48.412;9.514;2023-01-13T15:17:49;1.60;;;1.42;;
12976;SDS011;6553;48.412;9.514;2023-01-13T15:20:17;2.17;;;1.70;;
12976;SDS011;6553;48.412;9.514;2023-01-13T15:22:46;1.70;;;1.50;;
12976;SDS011;6553;48.412;9.514;2023-01-13T15:25:12;2.58;;;1.70;;
12976;SDS011;6553;48.412;9.514;2023-01-13T15:27:39;2.42;;;1.60;;
12976;SDS011;6553;48.412;9.514;2023-01-13T15:30:12;2.33;;;1.90;;
12976;SDS011;6553;48.412;9.514;2023-01-13T15:32:40;2.72;;;1.70;;
12976;SDS011;6553;48.412;9.514;2023-01-13T15:35:06;2.72;;;1.73;;
12976;SDS011;6553;48.412;9.514;2023-01-13T15:37:33;2.20;;;1.73;;
12976;SDS011;6553;48.412;9.514;2023-01-13T15:40:00;2.40;;;1.25;;
12976;SDS011;6553;48.412;9.514;2023-01-13T15:42:26;2.55;;;1.45;;
12976;SDS011;6553;48.412;9.514;2023-01-13T15:45:13;2.38;;;1.38;;
12976;SDS011;6553;48.412;9.514;2023-01-13T15:47:57;2.15;;;1.65;;
12976;SDS011;6553;48.412;9.514;2023-01-13T15:50:24;5.65;;;1.92;;
12976;SDS011;6553;48.412;9.514;2023-01-13T15:52:50;2.35;;;1.50;;
12976;SDS011;6553;48.412;9.514;2023-01-13T15:55:15;1.98;;;1.45;;
12976;SDS011;6553;48.412;9.514;2023-01-13T15:57:43;1.85;;;1.38;;
12976;SDS011;6553;48.412;9.514;2023-01-13T16:00:15;3.58;;;1.95;;
12976;SDS011;6553;48.412;9.514;2023-01-13T16:02:44;3.20;;;1.63;;
12976;SDS011;6553;48.412;9.514;2023-01-13T16:05:10;1.80;;;1.70;;
12976;SDS011;6553;48.412;9.514;2023-01-13T16:07:36;1.73;;;1.58;;
12976;SDS011;6553;48.412;9.514;2023-01-13T16:10:03;2.70;;;1.50;;
12976;SDS011;6553;48.412;9.514;2023-01-13T16:12:32;2.80;;;1.50;;
12976;SDS011;6553;48.412;9.514;2023-01-13T16:14:58;2.35;;;1.77;;
12976;SDS011;6553;48.412;9.514;2023-01-13T16:17:24;2.08;;;1.40;;
12976;SDS011;6553;48.412;9.514;2023-01-13T16:19:54;3.00;;;1.60;;
12976;SDS011;6553;48.412;9.514;2023-01-13T16:22:20;2.28;;;1.50;;
12976;SDS011;6553;48.412;9.514;2023-01-13T16:24:45;2.08;;;1.52;;
12976;SDS011;6553;48.412;9.514;2023-01-13T16:27:13;3.03;;;2.08;;
12976;SDS011;6553;48.412;9.514;2023-01-13T16:29:42;2.97;;;2.00;;
12976;SDS011;6553;48.412;9.514;2023-01-13T16:32:08;2.38;;;1.58;;
12976;SDS011;6553;48.412;9.514;2023-01-13T16:34:34;3.10;;;1.73;;
12976;SDS011;6553;48.412;9.514;2023-01-13T16:37:00;3.80;;;1.98;;
12976;SDS011;6553;48.412;9.514;2023-01-13T16:39:26;2.20;;;1.40;;
12976;SDS011;6553;48.412;9.514;2023-01-13T16:41:52;2.33;;;1.80;;
12976;SDS011;6553;48.412;9.514;2023-01-13T16:46:46;2.20;;;1.70;;
12976;SDS011;6553;48.412;9.514;2023-01-13T16:49:13;3.25;;;1.80;;
12976;SDS011;6553;48.412;9.514;2023-01-13T16:51:40;2.75;;;1.70;;
12976;SDS011;6553;48.412;9.514;2023-01-13T16:54:06;3.17;;;1.83;;
12976;SDS011;6553;48.412;9.514;2023-01-13T16:56:33;2.00;;;1.75;;
12976;SDS011;6553;48.412;9.514;2023-01-13T16:59:18;2.40;;;1.85;;
12976;SDS011;6553;48.412;9.514;2023-01-13T17:01:45;3.92;;;2.58;;
12976;SDS011;6553;48.412;9.514;2023-01-13T17:04:15;2.38;;;1.92;;
12976;SDS011;6553;48.412;9.514;2023-01-13T17:06:50;3.25;;;2.08;;
12976;SDS011;6553;48.412;9.514;2023-01-13T17:09:23;2.72;;;1.90;;
12976;SDS011;6553;48.412;9.514;2023-01-13T17:11:51;3.53;;;2.17;;
12976;SDS011;6553;48.412;9.514;2023-01-13T17:14:18;3.03;;;2.08;;
12976;SDS011;6553;48.412;9.514;2023-01-13T17:16:47;2.97;;;1.98;;
12976;SDS011;6553;48.412;9.514;2023-01-13T17:19:15;3.17;;;2.03;;
12976;SDS011;6553;48.412;9.514;2023-01-13T17:21:41;2.38;;;2.03;;
12976;SDS011;6553;48.412;9.514;2023-01-13T17:24:07;3.10;;;2.10;;
12976;SDS011;6553;48.412;9.514;2023-01-13T17:26:39;2.05;;;1.85;;
12976;SDS011;6553;48.412;9.514;2023-01-13T17:29:12;3.08;;;1.77;;
12976;SDS011;6553;48.412;9.514;2023-01-13T17:31:41;2.28;;;1.50;;
12976;SDS011;6553;48.412;9.514;2023-01-13T17:34:07;1.58;;;1.48;;
12976;SDS011;6553;48.412;9.514;2023-01-13T17:36:35;2.63;;;1.67;;
12976;SDS011;6553;48.412;9.514;2023-01-13T17:39:01;1.80;;;1.42;;
12976;SDS011;6553;48.412;9.514;2023-01-13T17:41:26;3.55;;;1.98;;
12976;SDS011;6553;48.412;9.514;2023-01-13T17:43:52;2.85;;;1.60;;
12976;SDS011;6553;48.412;9.514;2023-01-13T17:46:18;3.00;;;1.90;;
12976;SDS011;6553;48.412;9.514;2023-01-13T17:48:47;2.20;;;1.70;;
12976;SDS011;6553;48.412;9.514;2023-01-13T17:51:15;3.92;;;1.80;;